sensor_id;sensor_type;location;lat;lon;timestamp;pressure;altitude;pressure_sealevel;temperature;humidity
71889;BME280;59762;49.998;14.858;2023-05-01T00:00:42;97748.22;;;7.37;66.35
71889;BME280;59762;49.998;14.858;2023-05-01T00:03:14;97755.38;;;7.16;67.96
71889;BME280;59762;49.998;14.858;2023-05-01T00:05:40;97761.63;;;7.15;68.60
71889;BME280;59762;49.998;14.858;2023-05-01T00:08:05;97760.28;;;7.21;67.54
71889;BME280;59762;49.998;14.858;2023-05-01T00:10:34;97748.81;;;7.20;67.69
71889;BME280;59762;49.998;14.858;2023-05-01T00:13:03;97754.97;;;7.21;67.51
71889;BME280;59762;49.998;14.858;2023-05-01T00:15:30;97747.31;;;7.07;69.72
71889;BME280;59762;49.998;14.858;2023-05-01T00:17:55;97750.88;;;6.96;69.39
71889;BME280;59762;49.998;14.858;2023-05-01T00:20:21;97755.41;;;7.05;68.93
71889;BME280;59762;49.998;14.858;2023-05-01T00:22:50;97750.22;;;7.04;69.86
71889;BME280;59762;49.998;14.858;2023-05-01T00:25:16;97744.34;;;7.00;68.73
71889;BME280;59762;49.998;14.858;2023-05-01T00:27:41;97750.03;;;6.96;69.44
71889;BME280;59762;49.998;14.858;2023-05-01T00:30:07;97755.63;;;6.93;68.96
71889;BME280;59762;49.998;14.858;2023-05-01T00:32:33;97748.09;;;6.77;69.70
71889;BME280;59762;49.998;14.858;2023-05-01T00:34:59;97746.88;;;6.70;69.74
71889;BME280;59762;49.998;14.858;2023-05-01T00:37:25;97739.69;;;6.61;71.02
71889;BME280;59762;49.998;14.858;2023-05-01T00:39:50;97737.28;;;6.58;71.52
71889;BME280;59762;49.998;14.858;2023-05-01T00:42:16;97728.31;;;6.70;69.85
71889;BME280;59762;49.998;14.858;2023-05-01T00:44:42;97732.22;;;6.87;68.86
71889;BME280;59762;49.998;14.858;2023-05-01T00:47:07;97727.31;;;7.03;67.21
71889;BME280;59762;49.998;14.858;2023-05-01T00:49:33;97726.84;;;7.18;66.10
71889;BME280;59762;49.998;14.858;2023-05-01T00:51:59;97728.00;;;7.05;67.16
71889;BME280;59762;49.998;14.858;2023-05-01T00:54:26;97726.97;;;7.17;67.27
71889;BME280;59762;49.998;14.858;2023-05-01T00:56:52;97723.34;;;7.18;66.62
71889;BME280;59762;49.998;14.858;2023-05-01T00:59:19;97716.63;;;7.14;65.74
71889;BME280;59762;49.998;14.858;2023-05-01T01:01:45;97708.16;;;7.20;65.34
71889;BME280;59762;49.998;14.858;2023-05-01T01:04:12;97722.97;;;7.02;68.00
71889;BME280;59762;49.998;14.858;2023-05-01T01:10:52;97714.50;;;6.87;69.78
71889;BME280;59762;49.998;14.858;2023-05-01T01:13:00;97722.44;;;6.67;69.19
71889;BME280;59762;49.998;14.858;2023-05-01T01:15:49;97723.22;;;6.47;71.87
71889;BME280;59762;49.998;14.858;2023-05-01T01:23:41;97710.38;;;6.20;72.73
71889;BME280;59762;49.998;14.858;2023-05-01T01:31:32;97704.78;;;6.45;71.05
71889;BME280;59762;49.998;14.858;2023-05-01T01:34:13;97704.53;;;6.48;70.51
71889;BME280;59762;49.998;14.858;2023-05-01T01:39:26;97708.63;;;6.52;71.37
71889;BME280;59762;49.998;14.858;2023-05-01T01:41:55;97701.66;;;6.40;70.99
71889;BME280;59762;49.998;14.858;2023-05-01T01:44:29;97704.31;;;6.40;71.81
71889;BME280;59762;49.998;14.858;2023-05-01T01:47:01;97706.38;;;6.37;71.98
71889;BME280;59762;49.998;14.858;2023-05-01T01:49:29;97695.78;;;6.26;72.88
71889;BME280;59762;49.998;14.858;2023-05-01T01:51:57;97697.63;;;6.25;71.82
71889;BME280;59762;49.998;14.858;2023-05-01T01:54:32;97695.38;;;6.41;71.87
71889;BME280;59762;49.998;14.858;2023-05-01T01:57:01;97692.25;;;6.36;70.67
71889;BME280;59762;49.998;14.858;2023-05-01T01:59:30;97692.69;;;6.21;72.27
71889;BME280;59762;49.998;14.858;2023-05-01T02:01:58;97688.75;;;6.36;70.11
71889;BME280;59762;49.998;14.858;2023-05-01T02:04:26;97687.81;;;6.37;70.65
71889;BME280;59762;49.998;14.858;2023-05-01T02:06:55;97680.22;;;6.32;71.34
71889;BME280;59762;49.998;14.858;2023-05-01T02:09:23;97685.41;;;6.34;70.76
71889;BME280;59762;49.998;14.858;2023-05-01T02:11:50;97677.81;;;6.29;71.76
71889;BME280;59762;49.998;14.858;2023-05-01T02:14:17;97681.78;;;6.35;70.63
71889;BME280;59762;49.998;14.858;2023-05-01T02:16:43;97667.69;;;6.34;71.14
71889;BME280;59762;49.998;14.858;2023-05-01T02:19:10;97671.09;;;6.25;70.89
71889;BME280;59762;49.998;14.858;2023-05-01T02:21:37;97667.31;;;6.39;70.46
71889;BME280;59762;49.998;14.858;2023-05-01T02:24:04;97666.38;;;6.29;70.78
71889;BME280;59762;49.998;14.858;2023-05-01T02:26:30;97674.34;;;6.18;72.00
71889;BME280;59762;49.998;14.858;2023-05-01T02:29:00;97667.78;;;6.12;71.91
71889;BME280;59762;49.998;14.858;2023-05-01T02:31:26;97667.09;;;5.99;73.45
71889;BME280;59762;49.998;14.858;2023-05-01T02:33:52;97662.38;;;6.03;73.05
71889;BME280;59762;49.998;14.858;2023-05-01T02:36:18;97663.00;;;5.95;73.19
71889;BME280;59762;49.998;14.858;2023-05-01T02:38:43;97655.53;;;5.89;73.17
71889;BME280;59762;49.998;14.858;2023-05-01T02:41:13;97666.63;;;5.83;74.74
71889;BME280;59762;49.998;14.858;2023-05-01T02:43:40;97662.03;;;5.74;74.11
71889;BME280;59762;49.998;14.858;2023-05-01T02:46:09;97658.53;;;5.74;74.47
71889;BME280;59762;49.998;14.858;2023-05-01T02:48:37;97657.13;;;5.81;74.53
71889;BME280;59762;49.998;14.858;2023-05-01T02:51:03;97654.44;;;5.70;74.80
71889;BME280;59762;49.998;14.858;2023-05-01T02:53:30;97650.59;;;5.74;74.79
71889;BME280;59762;49.998;14.858;2023-05-01T02:55:57;97652.75;;;5.69;75.13
71889;BME280;59762;49.998;14.858;2023-05-01T02:58:23;97653.97;;;5.65;74.65
71889;BME280;59762;49.998;14.858;2023-05-01T03:00:49;97654.34;;;5.60;76.05
71889;BME280;59762;49.998;14.858;2023-05-01T03:03:15;97641.97;;;5.50;76.78
71889;BME280;59762;49.998;14.858;2023-05-01T03:05:41;97639.91;;;5.42;76.44
71889;BME280;59762;49.998;14.858;2023-05-01T03:08:06;97641.38;;;5.35;76.77
71889;BME280;59762;49.998;14.858;2023-05-01T03:10:33;97642.44;;;5.33;78.02
71889;BME280;59762;49.998;14.858;2023-05-01T03:12:58;97632.22;;;5.28;77.76
71889;BME280;59762;49.998;14.858;2023-05-01T03:15:25;97637.75;;;5.36;79.55
71889;BME280;59762;49.998;14.858;2023-05-01T03:17:50;97643.16;;;5.35;78.35
71889;BME280;59762;49.998;14.858;2023-05-01T03:20:16;97638.81;;;5.34;77.44
71889;BME280;59762;49.998;14.858;2023-05-01T03:22:42;97632.34;;;5.38;79.02
71889;BME280;59762;49.998;14.858;2023-05-01T03:25:08;97637.38;;;5.52;78.55
71889;BME280;59762;49.998;14.858;2023-05-01T03:27:34;97639.31;;;5.50;77.33
71889;BME280;59762;49.998;14.858;2023-05-01T03:30:00;97637.72;;;5.58;76.19
71889;BME280;59762;49.998;14.858;2023-05-01T03:32:25;97636.97;;;5.67;74.72
71889;BME280;59762;49.998;14.858;2023-05-01T03:34:53;97631.22;;;5.73;75.25
71889;BME280;59762;49.998;14.858;2023-05-01T03:37:19;97628.91;;;5.80;74.80
71889;BME280;59762;49.998;14.858;2023-05-01T03:39:45;97633.28;;;5.81;74.34
71889;BME280;59762;49.998;14.858;2023-05-01T03:42:11;97633.22;;;5.92;73.03
71889;BME280;59762;49.998;14.858;2023-05-01T03:44:37;97627.41;;;6.09;73.45
71889;BME280;59762;49.998;14.858;2023-05-01T03:47:02;97638.41;;;6.04;72.95
71889;BME280;59762;49.998;14.858;2023-05-01T03:49:29;97624.53;;;6.32;71.30
71889;BME280;59762;49.998;14.858;2023-05-01T03:51:54;97628.94;;;6.43;70.01
71889;BME280;59762;49.998;14.858;2023-05-01T03:54:21;97623.72;;;6.32;71.47
71889;BME280;59762;49.998;14.858;2023-05-01T03:56:46;97612.63;;;6.27;72.63
71889;BME280;59762;49.998;14.858;2023-05-01T03:59:12;97623.91;;;6.40;71.59
71889;BME280;59762;49.998;14.858;2023-05-01T04:01:38;97619.06;;;6.45;69.08
71889;BME280;59762;49.998;14.858;2023-05-01T04:04:05;97622.53;;;6.45;70.31
71889;BME280;59762;49.998;14.858;2023-05-01T04:06:32;97618.53;;;6.30;73.02
71889;BME280;59762;49.998;14.858;2023-05-01T04:08:58;97610.50;;;6.62;67.58
71889;BME280;59762;49.998;14.858;2023-05-01T04:11:23;97610.47;;;6.52;68.85
71889;BME280;59762;49.998;14.858;2023-05-01T04:13:49;97606.31;;;6.59;68.21
71889;BME280;59762;49.998;14.858;2023-05-01T04:16:14;97606.31;;;6.80;68.18
71889;BME280;59762;49.998;14.858;2023-05-01T04:18:40;97610.31;;;6.95;67.13
71889;BME280;59762;49.998;14.858;2023-05-01T04:21:06;97615.19;;;6.90;67.60
71889;BME280;59762;49.998;14.858;2023-05-01T04:23:33;97616.34;;;6.97;67.69
71889;BME280;59762;49.998;14.858;2023-05-01T04:25:58;97616.38;;;7.06;69.42
71889;BME280;59762;49.998;14.858;2023-05-01T04:28:24;97617.03;;;6.99;70.84
71889;BME280;59762;49.998;14.858;2023-05-01T04:30:50;97621.56;;;7.38;69.36
71889;BME280;59762;49.998;14.858;2023-05-01T04:33:16;97617.50;;;7.73;68.79
71889;BME280;59762;49.998;14.858;2023-05-01T04:35:42;97613.69;;;8.35;65.72
71889;BME280;59762;49.998;14.858;2023-05-01T04:38:08;97612.69;;;8.64;62.36
71889;BME280;59762;49.998;14.858;2023-05-01T04:40:34;97612.69;;;8.26;63.59
71889;BME280;59762;49.998;14.858;2023-05-01T04:43:00;97619.94;;;8.14;63.47
71889;BME280;59762;49.998;14.858;2023-05-01T04:45:26;97619.38;;;8.01;65.49
71889;BME280;59762;49.998;14.858;2023-05-01T04:47:51;97625.41;;;8.03;65.07
71889;BME280;59762;49.998;14.858;2023-05-01T04:50:17;97616.06;;;8.38;62.57
71889;BME280;59762;49.998;14.858;2023-05-01T04:52:43;97613.34;;;8.09;64.90
71889;BME280;59762;49.998;14.858;2023-05-01T04:55:08;97618.13;;;8.15;63.34
71889;BME280;59762;49.998;14.858;2023-05-01T04:57:34;97622.72;;;7.94;64.25
71889;BME280;59762;49.998;14.858;2023-05-01T05:00:01;97610.91;;;8.27;63.83
71889;BME280;59762;49.998;14.858;2023-05-01T05:02:27;97615.88;;;8.96;61.64
71889;BME280;59762;49.998;14.858;2023-05-01T05:04:53;97609.19;;;8.73;61.60
71889;BME280;59762;49.998;14.858;2023-05-01T05:07:19;97611.06;;;9.19;60.65
71889;BME280;59762;49.998;14.858;2023-05-01T05:09:45;97614.50;;;8.73;61.82
71889;BME280;59762;49.998;14.858;2023-05-01T05:12:11;97616.84;;;8.95;59.96
71889;BME280;59762;49.998;14.858;2023-05-01T05:14:38;97600.13;;;9.22;60.15
71889;BME280;59762;49.998;14.858;2023-05-01T05:17:04;97609.31;;;8.91;59.58
71889;BME280;59762;49.998;14.858;2023-05-01T05:19:30;97616.91;;;8.57;62.65
71889;BME280;59762;49.998;14.858;2023-05-01T05:21:56;97609.78;;;8.67;62.69
71889;BME280;59762;49.998;14.858;2023-05-01T05:24:22;97616.88;;;8.19;63.83
71889;BME280;59762;49.998;14.858;2023-05-01T05:26:48;97617.06;;;8.46;63.73
71889;BME280;59762;49.998;14.858;2023-05-01T05:29:13;97615.63;;;8.71;64.76
71889;BME280;59762;49.998;14.858;2023-05-01T05:31:39;97622.75;;;9.35;62.08
71889;BME280;59762;49.998;14.858;2023-05-01T05:34:05;97622.19;;;9.78;59.75
71889;BME280;59762;49.998;14.858;2023-05-01T05:36:30;97622.78;;;9.99;59.34
71889;BME280;59762;49.998;14.858;2023-05-01T05:38:56;97623.75;;;10.42;58.79
71889;BME280;59762;49.998;14.858;2023-05-01T05:41:23;97623.63;;;9.90;60.86
71889;BME280;59762;49.998;14.858;2023-05-01T05:43:48;97627.19;;;9.81;61.37
71889;BME280;59762;49.998;14.858;2023-05-01T05:46:14;97624.22;;;9.66;63.76
71889;BME280;59762;49.998;14.858;2023-05-01T05:48:40;97619.41;;;9.97;58.97
71889;BME280;59762;49.998;14.858;2023-05-01T05:51:06;97631.28;;;10.12;57.36
71889;BME280;59762;49.998;14.858;2023-05-01T05:53:31;97621.34;;;10.92;57.42
71889;BME280;59762;49.998;14.858;2023-05-01T05:55:57;97621.50;;;10.90;57.33
71889;BME280;59762;49.998;14.858;2023-05-01T05:58:22;97614.25;;;10.83;58.71
71889;BME280;59762;49.998;14.858;2023-05-01T06:00:49;97615.19;;;11.76;55.87
71889;BME280;59762;49.998;14.858;2023-05-01T06:03:15;97621.09;;;11.87;58.56
71889;BME280;59762;49.998;14.858;2023-05-01T06:05:43;97614.19;;;12.18;54.30
71889;BME280;59762;49.998;14.858;2023-05-01T06:08:09;97617.78;;;11.93;54.31
71889;BME280;59762;49.998;14.858;2023-05-01T06:10:35;97608.47;;;11.38;58.35
71889;BME280;59762;49.998;14.858;2023-05-01T06:13:02;97610.41;;;10.60;60.25
71889;BME280;59762;49.998;14.858;2023-05-01T06:15:27;97610.44;;;10.68;60.89
71889;BME280;59762;49.998;14.858;2023-05-01T06:17:53;97607.84;;;10.93;58.46
71889;BME280;59762;49.998;14.858;2023-05-01T06:20:19;97605.59;;;11.06;57.29
71889;BME280;59762;49.998;14.858;2023-05-01T06:22:45;97616.97;;;10.48;61.12
71889;BME280;59762;49.998;14.858;2023-05-01T06:25:11;97615.28;;;10.47;58.18
71889;BME280;59762;49.998;14.858;2023-05-01T06:27:37;97614.06;;;9.97;60.45
71889;BME280;59762;49.998;14.858;2023-05-01T06:30:03;97615.75;;;10.25;61.67
71889;BME280;59762;49.998;14.858;2023-05-01T06:32:29;97612.38;;;10.23;63.16
71889;BME280;59762;49.998;14.858;2023-05-01T06:34:55;97624.72;;;10.24;62.83
71889;BME280;59762;49.998;14.858;2023-05-01T06:37:20;97617.78;;;10.31;62.90
71889;BME280;59762;49.998;14.858;2023-05-01T06:39:46;97610.72;;;10.57;60.90
71889;BME280;59762;49.998;14.858;2023-05-01T06:42:12;97601.34;;;10.78;61.89
71889;BME280;59762;49.998;14.858;2023-05-01T06:44:41;97599.53;;;10.79;61.28
71889;BME280;59762;49.998;14.858;2023-05-01T06:47:06;97597.53;;;10.81;59.34
71889;BME280;59762;49.998;14.858;2023-05-01T06:49:32;97604.84;;;11.22;60.19
71889;BME280;59762;49.998;14.858;2023-05-01T06:51:58;97597.94;;;11.11;57.89
71889;BME280;59762;49.998;14.858;2023-05-01T06:54:24;97601.34;;;11.55;58.95
71889;BME280;59762;49.998;14.858;2023-05-01T06:56:51;97596.78;;;11.65;56.40
71889;BME280;59762;49.998;14.858;2023-05-01T06:59:17;97587.66;;;11.58;56.62
71889;BME280;59762;49.998;14.858;2023-05-01T07:01:43;97585.31;;;10.96;54.87
71889;BME280;59762;49.998;14.858;2023-05-01T07:04:09;97581.97;;;11.19;60.32
71889;BME280;59762;49.998;14.858;2023-05-01T07:06:35;97582.81;;;11.53;61.69
71889;BME280;59762;49.998;14.858;2023-05-01T07:09:00;97584.75;;;11.43;61.38
71889;BME280;59762;49.998;14.858;2023-05-01T07:11:26;97577.28;;;11.21;61.98
71889;BME280;59762;49.998;14.858;2023-05-01T07:13:53;97575.22;;;12.16;59.25
71889;BME280;59762;49.998;14.858;2023-05-01T07:16:18;97576.97;;;11.58;55.40
71889;BME280;59762;49.998;14.858;2023-05-01T07:18:45;97572.34;;;11.68;60.03
71889;BME280;59762;49.998;14.858;2023-05-01T07:21:10;97569.06;;;11.74;58.51
71889;BME280;59762;49.998;14.858;2023-05-01T07:23:36;97568.34;;;11.38;56.10
71889;BME280;59762;49.998;14.858;2023-05-01T07:26:02;97569.25;;;11.47;55.35
71889;BME280;59762;49.998;14.858;2023-05-01T07:28:29;97564.53;;;11.66;56.02
71889;BME280;59762;49.998;14.858;2023-05-01T07:30:54;97559.94;;;12.08;57.36
71889;BME280;59762;49.998;14.858;2023-05-01T07:33:20;97562.00;;;12.78;59.54
71889;BME280;59762;49.998;14.858;2023-05-01T07:35:45;97554.91;;;11.89;58.86
71889;BME280;59762;49.998;14.858;2023-05-01T07:38:11;97561.91;;;11.90;58.03
71889;BME280;59762;49.998;14.858;2023-05-01T07:40:38;97555.06;;;11.54;56.74
71889;BME280;59762;49.998;14.858;2023-05-01T07:43:03;97553.28;;;12.12;57.17
71889;BME280;59762;49.998;14.858;2023-05-01T07:45:29;97553.81;;;12.32;58.30
71889;BME280;59762;49.998;14.858;2023-05-01T07:47:55;97544.44;;;12.36;57.77
71889;BME280;59762;49.998;14.858;2023-05-01T07:50:21;97548.09;;;12.27;56.54
71889;BME280;59762;49.998;14.858;2023-05-01T07:52:47;97550.41;;;11.90;55.25
71889;BME280;59762;49.998;14.858;2023-05-01T07:55:13;97540.97;;;11.78;56.02
71889;BME280;59762;49.998;14.858;2023-05-01T07:57:39;97537.56;;;12.09;57.58
71889;BME280;59762;49.998;14.858;2023-05-01T08:00:05;97532.38;;;12.72;53.72
71889;BME280;59762;49.998;14.858;2023-05-01T08:02:31;97533.72;;;12.76;54.65
71889;BME280;59762;49.998;14.858;2023-05-01T08:04:56;97538.75;;;12.39;52.30
71889;BME280;59762;49.998;14.858;2023-05-01T08:07:22;97529.22;;;12.44;51.34
71889;BME280;59762;49.998;14.858;2023-05-01T08:09:48;97524.88;;;12.59;54.48
71889;BME280;59762;49.998;14.858;2023-05-01T08:12:13;97527.38;;;12.45;53.57
71889;BME280;59762;49.998;14.858;2023-05-01T08:14:39;97519.16;;;12.38;54.58
71889;BME280;59762;49.998;14.858;2023-05-01T08:17:05;97530.00;;;13.25;55.10
71889;BME280;59762;49.998;14.858;2023-05-01T08:19:30;97524.34;;;12.88;51.62
71889;BME280;59762;49.998;14.858;2023-05-01T08:21:56;97514.16;;;12.51;52.98
71889;BME280;59762;49.998;14.858;2023-05-01T08:24:22;97511.75;;;13.04;53.10
71889;BME280;59762;49.998;14.858;2023-05-01T08:26:47;97519.47;;;12.99;52.02
71889;BME280;59762;49.998;14.858;2023-05-01T08:29:13;97513.47;;;13.05;51.74
71889;BME280;59762;49.998;14.858;2023-05-01T08:31:39;97506.78;;;13.78;53.76
71889;BME280;59762;49.998;14.858;2023-05-01T08:34:07;97505.41;;;13.05;51.50
71889;BME280;59762;49.998;14.858;2023-05-01T08:36:33;97497.81;;;13.25;53.82
71889;BME280;59762;49.998;14.858;2023-05-01T08:39:01;97503.13;;;13.33;54.06
71889;BME280;59762;49.998;14.858;2023-05-01T08:41:29;97502.78;;;13.36;52.49
71889;BME280;59762;49.998;14.858;2023-05-01T08:43:56;97497.09;;;13.39;51.13
71889;BME280;59762;49.998;14.858;2023-05-01T08:47:31;97486.88;;;13.73;50.38
71889;BME280;59762;49.998;14.858;2023-05-01T08:49:32;97493.63;;;13.61;50.30
71889;BME280;59762;49.998;14.858;2023-05-01T08:52:02;97493.59;;;13.30;51.62
71889;BME280;59762;49.998;14.858;2023-05-01T08:54:30;97483.00;;;13.75;51.51
71889;BME280;59762;49.998;14.858;2023-05-01T08:57:00;97489.63;;;13.18;50.62
71889;BME280;59762;49.998;14.858;2023-05-01T08:59:33;97488.66;;;13.50;50.71
71889;BME280;59762;49.998;14.858;2023-05-01T09:02:00;97489.66;;;13.49;51.72
71889;BME280;59762;49.998;14.858;2023-05-01T09:04:33;97490.84;;;13.46;49.76
71889;BME280;59762;49.998;14.858;2023-05-01T09:07:00;97481.03;;;13.92;50.35
71889;BME280;59762;49.998;14.858;2023-05-01T09:09:27;97473.53;;;14.10;51.94
71889;BME280;59762;49.998;14.858;2023-05-01T09:11:55;97470.09;;;14.24;51.24
71889;BME280;59762;49.998;14.858;2023-05-01T09:14:22;97464.94;;;13.92;50.02
71889;BME280;59762;49.998;14.858;2023-05-01T09:16:48;97476.47;;;13.70;50.39
71889;BME280;59762;49.998;14.858;2023-05-01T09:19:13;97464.47;;;13.88;50.79
71889;BME280;59762;49.998;14.858;2023-05-01T09:21:39;97459.38;;;14.24;50.36
71889;BME280;59762;49.998;14.858;2023-05-01T09:24:05;97455.00;;;14.23;49.08
71889;BME280;59762;49.998;14.858;2023-05-01T09:26:32;97455.03;;;14.15;48.94
71889;BME280;59762;49.998;14.858;2023-05-01T09:29:01;97453.56;;;13.90;49.50
71889;BME280;59762;49.998;14.858;2023-05-01T09:31:28;97454.88;;;13.94;50.20
71889;BME280;59762;49.998;14.858;2023-05-01T09:33:56;97453.00;;;14.25;49.20
71889;BME280;59762;49.998;14.858;2023-05-01T09:36:26;97444.44;;;14.21;50.85
71889;BME280;59762;49.998;14.858;2023-05-01T09:38:53;97446.16;;;14.14;47.78
71889;BME280;59762;49.998;14.858;2023-05-01T09:41:19;97444.25;;;14.00;48.48
71889;BME280;59762;49.998;14.858;2023-05-01T09:43:57;97440.25;;;14.41;47.80
71889;BME280;59762;49.998;14.858;2023-05-01T09:46:25;97441.44;;;14.16;49.01
71889;BME280;59762;49.998;14.858;2023-05-01T09:49:00;97437.78;;;14.54;49.32
71889;BME280;59762;49.998;14.858;2023-05-01T09:51:34;97435.88;;;14.92;47.62
71889;BME280;59762;49.998;14.858;2023-05-01T09:54:01;97435.06;;;14.92;46.84
71889;BME280;59762;49.998;14.858;2023-05-01T09:56:29;97431.25;;;14.34;46.32
71889;BME280;59762;49.998;14.858;2023-05-01T09:58:58;97422.09;;;15.10;48.97
71889;BME280;59762;49.998;14.858;2023-05-01T10:01:38;97424.78;;;14.95;47.48
71889;BME280;59762;49.998;14.858;2023-05-01T10:04:04;97419.13;;;14.90;47.90
71889;BME280;59762;49.998;14.858;2023-05-01T10:06:30;97419.63;;;15.58;47.59
71889;BME280;59762;49.998;14.858;2023-05-01T10:08:56;97424.47;;;15.63;47.04
71889;BME280;59762;49.998;14.858;2023-05-01T10:11:22;97407.44;;;15.12;45.28
71889;BME280;59762;49.998;14.858;2023-05-01T10:14:09;97416.34;;;14.98;47.14
71889;BME280;59762;49.998;14.858;2023-05-01T10:16:36;97416.97;;;14.85;45.21
71889;BME280;59762;49.998;14.858;2023-05-01T10:19:03;97409.72;;;15.15;47.03
71889;BME280;59762;49.998;14.858;2023-05-01T10:21:30;97406.25;;;15.65;44.23
71889;BME280;59762;49.998;14.858;2023-05-01T10:24:00;97401.09;;;15.49;44.02
71889;BME280;59762;49.998;14.858;2023-05-01T10:26:32;97413.66;;;14.98;45.60
71889;BME280;59762;49.998;14.858;2023-05-01T10:28:59;97398.00;;;15.52;47.03
71889;BME280;59762;49.998;14.858;2023-05-01T10:31:26;97393.13;;;15.55;44.77
71889;BME280;59762;49.998;14.858;2023-05-01T10:33:53;97383.19;;;15.77;45.62
71889;BME280;59762;49.998;14.858;2023-05-01T10:36:36;97381.72;;;15.74;43.09
71889;BME280;59762;49.998;14.858;2023-05-01T10:39:03;97375.09;;;15.56;45.24
71889;BME280;59762;49.998;14.858;2023-05-01T10:44:26;97371.09;;;15.87;44.56
71889;BME280;59762;49.998;14.858;2023-05-01T10:46:53;97370.09;;;16.16;44.35
71889;BME280;59762;49.998;14.858;2023-05-01T10:49:18;97368.25;;;16.16;42.90
71889;BME280;59762;49.998;14.858;2023-05-01T10:54:31;97354.19;;;16.42;44.09
71889;BME280;59762;49.998;14.858;2023-05-01T10:56:59;97354.94;;;16.36;44.45
71889;BME280;59762;49.998;14.858;2023-05-01T11:00:11;97348.91;;;16.55;45.57
71889;BME280;59762;49.998;14.858;2023-05-01T11:02:21;97341.03;;;16.60;43.58
71889;BME280;59762;49.998;14.858;2023-05-01T11:04:48;97335.44;;;16.34;44.54
71889;BME280;59762;49.998;14.858;2023-05-01T11:07:16;97329.44;;;16.59;43.53
71889;BME280;59762;49.998;14.858;2023-05-01T11:12:12;97319.34;;;15.92;41.89
71889;BME280;59762;49.998;14.858;2023-05-01T11:22:35;97296.31;;;17.79;42.46
71889;BME280;59762;49.998;14.858;2023-05-01T11:25:01;97277.19;;;17.61;42.16
71889;BME280;59762;49.998;14.858;2023-05-01T11:27:30;97295.31;;;18.06;40.85
71889;BME280;59762;49.998;14.858;2023-05-01T11:29:58;97287.13;;;17.54;40.17
71889;BME280;59762;49.998;14.858;2023-05-01T11:32:27;97290.94;;;17.85;40.87
71889;BME280;59762;49.998;14.858;2023-05-01T11:34:55;97282.13;;;17.44;40.30
71889;BME280;59762;49.998;14.858;2023-05-01T11:37:42;97274.28;;;18.21;41.02
71889;BME280;59762;49.998;14.858;2023-05-01T11:40:25;97275.53;;;18.25;40.50
71889;BME280;59762;49.998;14.858;2023-05-01T11:43:01;97269.31;;;17.85;40.85
71889;BME280;59762;49.998;14.858;2023-05-01T11:45:28;97273.88;;;17.65;39.63
71889;BME280;59762;49.998;14.858;2023-05-01T11:47:54;97264.75;;;17.92;42.61
71889;BME280;59762;49.998;14.858;2023-05-01T11:50:20;97259.28;;;17.40;41.05
71889;BME280;59762;49.998;14.858;2023-05-01T11:52:48;97257.66;;;17.52;42.80
71889;BME280;59762;49.998;14.858;2023-05-01T11:55:15;97254.97;;;17.91;41.01
71889;BME280;59762;49.998;14.858;2023-05-01T11:57:52;97250.81;;;17.76;41.17
71889;BME280;59762;49.998;14.858;2023-05-01T12:02:59;97244.38;;;17.83;41.34
71889;BME280;59762;49.998;14.858;2023-05-01T12:05:26;97241.03;;;18.20;42.87
71889;BME280;59762;49.998;14.858;2023-05-01T12:08:10;97246.03;;;17.84;42.51
71889;BME280;59762;49.998;14.858;2023-05-01T12:10:38;97236.91;;;17.85;41.85
71889;BME280;59762;49.998;14.858;2023-05-01T12:13:06;97225.25;;;18.04;43.21
71889;BME280;59762;49.998;14.858;2023-05-01T12:15:33;97222.53;;;18.43;42.72
71889;BME280;59762;49.998;14.858;2023-05-01T12:18:02;97220.75;;;18.81;42.18
71889;BME280;59762;49.998;14.858;2023-05-01T12:20:41;97213.38;;;18.38;43.08
71889;BME280;59762;49.998;14.858;2023-05-01T12:23:12;97209.59;;;18.32;43.26
71889;BME280;59762;49.998;14.858;2023-05-01T12:25:39;97213.38;;;18.25;43.29
71889;BME280;59762;49.998;14.858;2023-05-01T12:28:12;97206.72;;;18.40;42.15
71889;BME280;59762;49.998;14.858;2023-05-01T12:30:39;97209.69;;;17.93;41.94
71889;BME280;59762;49.998;14.858;2023-05-01T12:33:10;97204.69;;;18.03;42.94
71889;BME280;59762;49.998;14.858;2023-05-01T12:35:36;97189.94;;;18.82;42.95
71889;BME280;59762;49.998;14.858;2023-05-01T12:38:13;97185.56;;;18.18;42.74
71889;BME280;59762;49.998;14.858;2023-05-01T12:40:48;97188.72;;;17.69;42.70
71889;BME280;59762;49.998;14.858;2023-05-01T12:43:15;97181.75;;;18.51;43.46
71889;BME280;59762;49.998;14.858;2023-05-01T12:45:40;97171.25;;;18.74;41.07
71889;BME280;59762;49.998;14.858;2023-05-01T12:48:13;97173.41;;;18.59;40.76
71889;BME280;59762;49.998;14.858;2023-05-01T12:50:41;97175.91;;;18.54;40.64
71889;BME280;59762;49.998;14.858;2023-05-01T12:53:08;97170.94;;;18.51;41.55
71889;BME280;59762;49.998;14.858;2023-05-01T12:55:45;97181.84;;;18.76;42.29
71889;BME280;59762;49.998;14.858;2023-05-01T12:58:12;97159.78;;;18.15;41.60
71889;BME280;59762;49.998;14.858;2023-05-01T13:00:51;97155.44;;;17.95;42.22
71889;BME280;59762;49.998;14.858;2023-05-01T13:03:23;97160.63;;;17.96;43.00
71889;BME280;59762;49.998;14.858;2023-05-01T13:05:57;97164.94;;;18.23;43.44
71889;BME280;59762;49.998;14.858;2023-05-01T13:08:28;97153.31;;;18.36;42.68
71889;BME280;59762;49.998;14.858;2023-05-01T13:10:56;97152.88;;;18.26;42.37
71889;BME280;59762;49.998;14.858;2023-05-01T13:13:34;97138.41;;;17.88;42.26
71889;BME280;59762;49.998;14.858;2023-05-01T13:16:05;97155.25;;;17.57;43.93
71889;BME280;59762;49.998;14.858;2023-05-01T13:18:32;97143.56;;;18.22;44.85
71889;BME280;59762;49.998;14.858;2023-05-01T13:21:08;97144.41;;;17.96;44.85
71889;BME280;59762;49.998;14.858;2023-05-01T13:23:37;97142.97;;;17.94;44.52
71889;BME280;59762;49.998;14.858;2023-05-01T13:26:06;97124.28;;;17.79;45.06
71889;BME280;59762;49.998;14.858;2023-05-01T13:28:35;97130.16;;;17.57;45.76
71889;BME280;59762;49.998;14.858;2023-05-01T13:31:13;97138.25;;;17.50;46.55
71889;BME280;59762;49.998;14.858;2023-05-01T13:33:42;97130.13;;;17.76;46.45